sensor_id;sensor_type;location;lat;lon;timestamp;pressure;altitude;pressure_sealevel;temperature;humidity
19594;BME280;9944;48.240;16.478;2024-02-14T00:02:52;100379.53;;;3.73;63.58
19594;BME280;9944;48.240;16.478;2024-02-14T00:06:56;100383.91;;;3.74;63.78
19594;BME280;9944;48.240;16.478;2024-02-14T00:11:00;100383.84;;;3.73;63.84
19594;BME280;9944;48.240;16.478;2024-02-14T00:15:04;100386.47;;;3.73;63.96
19594;BME280;9944;48.240;16.478;2024-02-14T00:19:09;100385.53;;;3.71;64.18
19594;BME280;9944;48.240;16.478;2024-02-14T00:23:14;100393.38;;;3.71;64.16
19594;BME280;9944;48.240;16.478;2024-02-14T00:27:17;100399.44;;;3.70;64.39
19594;BME280;9944;48.240;16.478;2024-02-14T00:31:20;100398.47;;;3.68;64.16
19594;BME280;9944;48.240;16.478;2024-02-14T00:35:24;100394.09;;;3.66;64.17
19594;BME280;9944;48.240;16.478;2024-02-14T00:39:29;100401.00;;;3.64;64.34
19594;BME280;9944;48.240;16.478;2024-02-14T00:43:32;100400.88;;;3.61;64.50
19594;BME280;9944;48.240;16.478;2024-02-14T00:47:35;100401.72;;;3.60;64.52
19594;BME280;9944;48.240;16.478;2024-02-14T00:51:39;100403.38;;;3.58;64.41
19594;BME280;9944;48.240;16.478;2024-02-14T00:55:44;100409.47;;;3.57;64.51
19594;BME280;9944;48.240;16.478;2024-02-14T00:59:47;100417.19;;;3.54;64.59
19594;BME280;9944;48.240;16.478;2024-02-14T01:03:51;100414.47;;;3.51;64.67
19594;BME280;9944;48.240;16.478;2024-02-14T01:07:54;100413.53;;;3.49;64.82
19594;BME280;9944;48.240;16.478;2024-02-14T01:11:59;100411.63;;;3.45;64.83
19594;BME280;9944;48.240;16.478;2024-02-14T01:16:03;100414.16;;;3.42;64.62
19594;BME280;9944;48.240;16.478;2024-02-14T01:20:07;100407.88;;;3.37;64.68
19594;BME280;9944;48.240;16.478;2024-02-14T01:24:11;100408.59;;;3.33;64.86
19594;BME280;9944;48.240;16.478;2024-02-14T01:28:16;100401.50;;;3.28;64.72
19594;BME280;9944;48.240;16.478;2024-02-14T01:32:19;100397.84;;;3.23;64.76
19594;BME280;9944;48.240;16.478;2024-02-14T01:36:23;100399.63;;;3.24;64.92
19594;BME280;9944;48.240;16.478;2024-02-14T01:40:26;100397.00;;;3.24;65.11
19594;BME280;9944;48.240;16.478;2024-02-14T01:44:31;100393.50;;;3.24;65.05
19594;BME280;9944;48.240;16.478;2024-02-14T01:48:34;100397.72;;;3.20;65.08
19594;BME280;9944;48.240;16.478;2024-02-14T01:52:38;100387.09;;;3.14;65.03
19594;BME280;9944;48.240;16.478;2024-02-14T01:56:43;100380.88;;;3.11;65.06
19594;BME280;9944;48.240;16.478;2024-02-14T02:00:48;100389.44;;;3.08;65.25
19594;BME280;9944;48.240;16.478;2024-02-14T02:04:52;100383.28;;;3.06;65.37
19594;BME280;9944;48.240;16.478;2024-02-14T02:08:55;100376.16;;;3.00;65.36
19594;BME280;9944;48.240;16.478;2024-02-14T02:12:59;100382.97;;;2.97;65.34
19594;BME280;9944;48.240;16.478;2024-02-14T02:17:04;100374.97;;;2.92;65.74
19594;BME280;9944;48.240;16.478;2024-02-14T02:21:09;100380.94;;;2.89;65.91
19594;BME280;9944;48.240;16.478;2024-02-14T02:25:16;100374.72;;;2.86;65.76
19594;BME280;9944;48.240;16.478;2024-02-14T02:29:19;100378.06;;;2.82;65.82
19594;BME280;9944;48.240;16.478;2024-02-14T02:33:23;100391.09;;;2.82;66.12
19594;BME280;9944;48.240;16.478;2024-02-14T02:37:29;100384.06;;;2.79;66.27
19594;BME280;9944;48.240;16.478;2024-02-14T02:41:33;100381.28;;;2.75;66.35
19594;BME280;9944;48.240;16.478;2024-02-14T02:45:37;100394.13;;;2.70;66.56
19594;BME280;9944;48.240;16.478;2024-02-14T02:49:40;100398.41;;;2.68;66.55
19594;BME280;9944;48.240;16.478;2024-02-14T02:53:47;100405.34;;;2.67;66.68
19594;BME280;9944;48.240;16.478;2024-02-14T02:57:51;100407.97;;;2.67;66.89
19594;BME280;9944;48.240;16.478;2024-02-14T03:01:55;100413.25;;;2.69;66.89
19594;BME280;9944;48.240;16.478;2024-02-14T03:05:59;100409.63;;;2.65;66.75
19594;BME280;9944;48.240;16.478;2024-02-14T03:10:06;100405.88;;;2.59;66.82
19594;BME280;9944;48.240;16.478;2024-02-14T03:14:11;100417.91;;;2.55;66.57
19594;BME280;9944;48.240;16.478;2024-02-14T03:18:14;100426.38;;;2.49;66.54
19594;BME280;9944;48.240;16.478;2024-02-14T03:22:17;100424.47;;;2.45;66.63
19594;BME280;9944;48.240;16.478;2024-02-14T03:26:21;100420.88;;;2.42;66.80
19594;BME280;9944;48.240;16.478;2024-02-14T03:30:26;100428.69;;;2.42;67.37
19594;BME280;9944;48.240;16.478;2024-02-14T03:34:32;100434.03;;;2.45;67.46
19594;BME280;9944;48.240;16.478;2024-02-14T03:38:37;100433.25;;;2.47;67.58
19594;BME280;9944;48.240;16.478;2024-02-14T03:42:41;100430.63;;;2.47;67.79
19594;BME280;9944;48.240;16.478;2024-02-14T03:46:46;100433.09;;;2.44;67.46
19594;BME280;9944;48.240;16.478;2024-02-14T03:50:49;100435.63;;;2.41;67.50
19594;BME280;9944;48.240;16.478;2024-02-14T03:54:53;100425.13;;;2.40;67.71
19594;BME280;9944;48.240;16.478;2024-02-14T03:58:56;100439.03;;;2.40;68.08
19594;BME280;9944;48.240;16.478;2024-02-14T04:03:00;100431.22;;;2.40;68.23
19594;BME280;9944;48.240;16.478;2024-02-14T04:07:05;100444.31;;;2.42;68.19
19594;BME280;9944;48.240;16.478;2024-02-14T04:11:10;100441.66;;;2.40;68.19
19594;BME280;9944;48.240;16.478;2024-02-14T04:15:15;100444.97;;;2.36;68.19
19594;BME280;9944;48.240;16.478;2024-02-14T04:19:20;100448.38;;;2.35;68.22
19594;BME280;9944;48.240;16.478;2024-02-14T04:23:24;100443.91;;;2.31;68.08
19594;BME280;9944;48.240;16.478;2024-02-14T04:27:28;100447.16;;;2.25;67.91
19594;BME280;9944;48.240;16.478;2024-02-14T04:31:31;100439.00;;;2.18;67.71
19594;BME280;9944;48.240;16.478;2024-02-14T04:35:35;100437.06;;;2.12;68.00
19594;BME280;9944;48.240;16.478;2024-02-14T04:39:39;100439.53;;;2.09;68.42
19594;BME280;9944;48.240;16.478;2024-02-14T04:43:43;100436.91;;;2.09;68.74
19594;BME280;9944;48.240;16.478;2024-02-14T04:47:46;100435.19;;;2.09;69.03
19594;BME280;9944;48.240;16.478;2024-02-14T04:51:52;100429.25;;;2.12;69.10
19594;BME280;9944;48.240;16.478;2024-02-14T04:55:55;100433.56;;;2.11;68.95
19594;BME280;9944;48.240;16.478;2024-02-14T04:59:58;100438.66;;;2.08;69.04
19594;BME280;9944;48.240;16.478;2024-02-14T05:04:02;100442.84;;;2.05;68.97
19594;BME280;9944;48.240;16.478;2024-02-14T05:08:08;100446.13;;;2.01;69.07
19594;BME280;9944;48.240;16.478;2024-02-14T05:12:11;100451.22;;;1.98;69.35
19594;BME280;9944;48.240;16.478;2024-02-14T05:16:18;100450.31;;;1.97;69.54
19594;BME280;9944;48.240;16.478;2024-02-14T05:20:21;100458.97;;;1.96;69.66
19594;BME280;9944;48.240;16.478;2024-02-14T05:24:27;100460.59;;;1.94;69.63
19594;BME280;9944;48.240;16.478;2024-02-14T05:28:32;100458.69;;;1.90;69.78
19594;BME280;9944;48.240;16.478;2024-02-14T05:32:36;100466.19;;;1.82;69.70
19594;BME280;9944;48.240;16.478;2024-02-14T05:36:39;100468.28;;;1.70;69.89
19594;BME280;9944;48.240;16.478;2024-02-14T05:40:46;100478.34;;;1.62;69.97
19594;BME280;9944;48.240;16.478;2024-02-14T05:44:50;100482.25;;;1.52;70.19
19594;BME280;9944;48.240;16.478;2024-02-14T05:48:54;100485.47;;;1.47;70.50
19594;BME280;9944;48.240;16.478;2024-02-14T05:52:59;100488.72;;;1.41;70.55
19594;BME280;9944;48.240;16.478;2024-02-14T05:57:06;100484.88;;;1.33;70.99
19594;BME280;9944;48.240;16.478;2024-02-14T06:01:10;100483.84;;;1.29;71.86
19594;BME280;9944;48.240;16.478;2024-02-14T06:05:13;100492.47;;;1.28;71.45
19594;BME280;9944;48.240;16.478;2024-02-14T06:09:17;100492.59;;;1.31;71.58
19594;BME280;9944;48.240;16.478;2024-02-14T06:13:22;100497.00;;;1.32;71.76
19594;BME280;9944;48.240;16.478;2024-02-14T06:17:45;100503.16;;;1.34;71.85
19594;BME280;9944;48.240;16.478;2024-02-14T06:22:08;100513.69;;;1.37;72.14
19594;BME280;9944;48.240;16.478;2024-02-14T06:26:33;100514.09;;;1.47;72.40
19594;BME280;9944;48.240;16.478;2024-02-14T06:30:57;100511.09;;;1.57;72.37
19594;BME280;9944;48.240;16.478;2024-02-14T06:35:22;100516.69;;;1.66;72.52
19594;BME280;9944;48.240;16.478;2024-02-14T06:39:45;100525.56;;;1.71;72.25
19594;BME280;9944;48.240;16.478;2024-02-14T06:44:10;100525.78;;;1.76;72.03
19594;BME280;9944;48.240;16.478;2024-02-14T06:48:35;100526.81;;;1.80;72.07
19594;BME280;9944;48.240;16.478;2024-02-14T06:52:59;100543.53;;;1.85;72.19
19594;BME280;9944;48.240;16.478;2024-02-14T06:57:23;100547.06;;;1.87;72.02
19594;BME280;9944;48.240;16.478;2024-02-14T07:01:47;100545.56;;;1.92;71.88
19594;BME280;9944;48.240;16.478;2024-02-14T07:06:12;100549.97;;;1.93;71.83
19594;BME280;9944;48.240;16.478;2024-02-14T07:10:36;100546.59;;;1.95;71.87
19594;BME280;9944;48.240;16.478;2024-02-14T07:14:59;100545.84;;;1.98;71.87
19594;BME280;9944;48.240;16.478;2024-02-14T07:19:22;100544.25;;;2.02;71.95
19594;BME280;9944;48.240;16.478;2024-02-14T07:23:47;100543.56;;;2.06;72.09
19594;BME280;9944;48.240;16.478;2024-02-14T07:28:11;100549.03;;;2.12;72.01
19594;BME280;9944;48.240;16.478;2024-02-14T07:32:34;100550.19;;;2.19;72.29
19594;BME280;9944;48.240;16.478;2024-02-14T07:37:00;100538.34;;;2.27;72.15
19594;BME280;9944;48.240;16.478;2024-02-14T07:41:24;100540.44;;;2.36;72.24
19594;BME280;9944;48.240;16.478;2024-02-14T07:45:48;100548.59;;;2.43;72.33
19594;BME280;9944;48.240;16.478;2024-02-14T07:50:12;100551.00;;;2.60;72.83
19594;BME280;9944;48.240;16.478;2024-02-14T07:54:35;100547.88;;;2.68;72.53
19594;BME280;9944;48.240;16.478;2024-02-14T07:59:00;100549.34;;;2.83;72.49
19594;BME280;9944;48.240;16.478;2024-02-14T08:03:23;100544.88;;;3.03;72.44
19594;BME280;9944;48.240;16.478;2024-02-14T08:07:47;100548.28;;;3.23;72.36
19594;BME280;9944;48.240;16.478;2024-02-14T08:12:10;100551.41;;;3.37;72.39
19594;BME280;9944;48.240;16.478;2024-02-14T08:16:36;100544.16;;;3.52;72.39
19594;BME280;9944;48.240;16.478;2024-02-14T08:20:59;100542.06;;;3.68;72.26
19594;BME280;9944;48.240;16.478;2024-02-14T08:25:22;100550.25;;;3.77;71.87
19594;BME280;9944;48.240;16.478;2024-02-14T08:29:46;100545.41;;;3.88;71.88
19594;BME280;9944;48.240;16.478;2024-02-14T08:34:10;100549.22;;;3.96;71.66
19594;BME280;9944;48.240;16.478;2024-02-14T08:38:34;100537.25;;;4.02;71.92
19594;BME280;9944;48.240;16.478;2024-02-14T08:42:57;100534.84;;;4.09;71.67
19594;BME280;9944;48.240;16.478;2024-02-14T08:47:21;100537.75;;;4.18;71.84
19594;BME280;9944;48.240;16.478;2024-02-14T08:51:45;100537.25;;;4.28;71.72
19594;BME280;9944;48.240;16.478;2024-02-14T08:56:10;100533.28;;;4.39;71.32
19594;BME280;9944;48.240;16.478;2024-02-14T09:00:34;100518.81;;;4.51;71.07
19594;BME280;9944;48.240;16.478;2024-02-14T09:04:57;100520.00;;;4.60;70.98
19594;BME280;9944;48.240;16.478;2024-02-14T09:09:22;100529.00;;;4.69;70.65
19594;BME280;9944;48.240;16.478;2024-02-14T09:13:45;100528.41;;;4.77;70.30
19594;BME280;9944;48.240;16.478;2024-02-14T09:18:09;100531.50;;;4.93;69.98
19594;BME280;9944;48.240;16.478;2024-02-14T09:22:35;100523.22;;;5.08;69.79
19594;BME280;9944;48.240;16.478;2024-02-14T09:26:59;100519.31;;;5.24;68.86
19594;BME280;9944;48.240;16.478;2024-02-14T09:31:24;100508.44;;;5.39;68.29
19594;BME280;9944;48.240;16.478;2024-02-14T09:35:47;100512.28;;;5.51;67.21
19594;BME280;9944;48.240;16.478;2024-02-14T09:40:15;100507.56;;;5.70;66.48
19594;BME280;9944;48.240;16.478;2024-02-14T09:44:40;100512.38;;;5.86;66.06
19594;BME280;9944;48.240;16.478;2024-02-14T09:49:05;100511.22;;;6.10;65.53
19594;BME280;9944;48.240;16.478;2024-02-14T09:53:29;100510.06;;;6.32;64.57
19594;BME280;9944;48.240;16.478;2024-02-14T09:57:54;100518.47;;;6.54;63.40
19594;BME280;9944;48.240;16.478;2024-02-14T10:02:20;100514.47;;;6.68;62.94
19594;BME280;9944;48.240;16.478;2024-02-14T10:06:44;100514.06;;;6.89;62.04
19594;BME280;9944;48.240;16.478;2024-02-14T10:11:08;100506.56;;;7.04;61.75
19594;BME280;9944;48.240;16.478;2024-02-14T10:15:33;100508.50;;;7.15;61.16
19594;BME280;9944;48.240;16.478;2024-02-14T10:19:58;100494.72;;;7.25;60.56
19594;BME280;9944;48.240;16.478;2024-02-14T10:24:24;100493.22;;;7.36;60.22
19594;BME280;9944;48.240;16.478;2024-02-14T10:28:47;100489.19;;;7.54;60.05
19594;BME280;9944;48.240;16.478;2024-02-14T10:33:12;100483.47;;;7.76;59.27
19594;BME280;9944;48.240;16.478;2024-02-14T10:37:49;100474.22;;;7.97;58.67
19594;BME280;9944;48.240;16.478;2024-02-14T10:42:13;100460.56;;;8.18;58.27
19594;BME280;9944;48.240;16.478;2024-02-14T10:46:37;100454.72;;;8.33;56.66
19594;BME280;9944;48.240;16.478;2024-02-14T10:51:02;100446.97;;;8.44;56.38
19594;BME280;9944;48.240;16.478;2024-02-14T10:55:30;100443.66;;;8.57;56.55
19594;BME280;9944;48.240;16.478;2024-02-14T10:59:54;100434.13;;;8.65;56.30
19594;BME280;9944;48.240;16.478;2024-02-14T11:04:17;100426.38;;;8.74;55.93
19594;BME280;9944;48.240;16.478;2024-02-14T11:08:41;100425.63;;;8.86;55.99
19594;BME280;9944;48.240;16.478;2024-02-14T11:13:10;100413.56;;;9.04;55.56
19594;BME280;9944;48.240;16.478;2024-02-14T11:17:35;100414.53;;;9.10;55.02
19594;BME280;9944;48.240;16.478;2024-02-14T11:21:59;100410.19;;;9.14;54.64
19594;BME280;9944;48.240;16.478;2024-02-14T11:26:38;100417.28;;;9.18;54.08
19594;BME280;9944;48.240;16.478;2024-02-14T11:31:03;100415.59;;;9.26;54.04
19594;BME280;9944;48.240;16.478;2024-02-14T11:35:27;100408.56;;;9.25;52.79
19594;BME280;9944;48.240;16.478;2024-02-14T11:39:51;100407.78;;;9.33;54.01
19594;BME280;9944;48.240;16.478;2024-02-14T11:44:14;100404.41;;;9.46;53.79
19594;BME280;9944;48.240;16.478;2024-02-14T11:48:38;100401.03;;;9.61;53.85
19594;BME280;9944;48.240;16.478;2024-02-14T11:53:04;100387.94;;;9.68;53.13
19594;BME280;9944;48.240;16.478;2024-02-14T11:57:29;100385.44;;;9.84;52.81
19594;BME280;9944;48.240;16.478;2024-02-14T12:01:53;100383.84;;;10.00;53.17
19594;BME280;9944;48.240;16.478;2024-02-14T12:06:21;100378.69;;;10.17;53.14
19594;BME280;9944;48.240;16.478;2024-02-14T12:10:45;100374.31;;;10.19;54.17
19594;BME280;9944;48.240;16.478;2024-02-14T12:15:11;100372.56;;;10.21;53.77
19594;BME280;9944;48.240;16.478;2024-02-14T12:19:37;100367.22;;;10.09;53.84
19594;BME280;9944;48.240;16.478;2024-02-14T12:24:06;100369.81;;;10.05;54.17
19594;BME280;9944;48.240;16.478;2024-02-14T12:28:30;100364.56;;;10.07;54.31
19594;BME280;9944;48.240;16.478;2024-02-14T12:32:59;100357.59;;;10.14;54.29
19594;BME280;9944;48.240;16.478;2024-02-14T12:37:23;100352.34;;;10.21;54.33
19594;BME280;9944;48.240;16.478;2024-02-14T12:41:47;100355.91;;;10.28;53.89
19594;BME280;9944;48.240;16.478;2024-02-14T12:46:12;100344.53;;;10.38;53.96
19594;BME280;9944;48.240;16.478;2024-02-14T12:50:35;100344.56;;;10.41;53.41
19594;BME280;9944;48.240;16.478;2024-02-14T12:55:00;100350.69;;;10.40;53.55
19594;BME280;9944;48.240;16.478;2024-02-14T12:59:24;100338.41;;;10.46;52.89
19594;BME280;9944;48.240;16.478;2024-02-14T13:03:48;100330.47;;;10.36;53.46
19594;BME280;9944;48.240;16.478;2024-02-14T13:08:11;100333.13;;;10.42;53.57
19594;BME280;9944;48.240;16.478;2024-02-14T13:12:35;100325.25;;;10.50;53.65
19594;BME280;9944;48.240;16.478;2024-02-14T13:17:00;100321.78;;;10.62;53.31
19594;BME280;9944;48.240;16.478;2024-02-14T13:21:24;100322.72;;;10.75;52.96
19594;BME280;9944;48.240;16.478;2024-02-14T13:25:47;100324.53;;;10.85;53.22
19594;BME280;9944;48.240;16.478;2024-02-14T13:30:11;100318.41;;;10.95;52.96
19594;BME280;9944;48.240;16.478;2024-02-14T13:34:36;100314.88;;;10.99;52.84
19594;BME280;9944;48.240;16.478;2024-02-14T13:39:00;100312.22;;;10.95;52.67
19594;BME280;9944;48.240;16.478;2024-02-14T13:43:23;100317.50;;;10.90;52.61
19594;BME280;9944;48.240;16.478;2024-02-14T13:47:47;100313.09;;;10.85;52.60
19594;BME280;9944;48.240;16.478;2024-02-14T13:52:11;100318.34;;;10.88;52.78
19594;BME280;9944;48.240;16.478;2024-02-14T13:56:38;100327.19;;;10.90;52.19
19594;BME280;9944;48.240;16.478;2024-02-14T14:01:01;100325.41;;;10.86;52.06
19594;BME280;9944;48.240;16.478;2024-02-14T14:05:24;100323.66;;;10.91;52.12
19594;BME280;9944;48.240;16.478;2024-02-14T14:09:49;100322.78;;;10.95;51.97
19594;BME280;9944;48.240;16.478;2024-02-14T14:14:12;100325.41;;;10.96;51.62
19594;BME280;9944;48.240;16.478;2024-02-14T14:18:40;100328.06;;;10.95;51.98
19594;BME280;9944;48.240;16.478;2024-02-14T14:23:03;100327.22;;;10.99;51.73
19594;BME280;9944;48.240;16.478;2024-02-14T14:27:29;100321.88;;;10.93;50.72
19594;BME280;9944;48.240;16.478;2024-02-14T14:31:52;100328.94;;;10.85;50.38
19594;BME280;9944;48.240;16.478;2024-02-14T14:36:15;100320.97;;;10.77;50.40
19594;BME280;9944;48.240;16.478;2024-02-14T14:40:40;100319.19;;;10.70;49.88
19594;BME280;9944;48.240;16.478;2024-02-14T14:45:05;100328.81;;;10.63;50.33
19594;BME280;9944;48.240;16.478;2024-02-14T14:49:29;100329.72;;;10.62;49.74
19594;BME280;9944;48.240;16.478;2024-02-14T14:53:52;100324.41;;;10.56;49.34
19594;BME280;9944;48.240;16.478;2024-02-14T14:58:16;100325.25;;;10.52;49.45
19594;BME280;9944;48.240;16.478;2024-02-14T15:02:41;100315.53;;;10.46;49.55
19594;BME280;9944;48.240;16.478;2024-02-14T15:07:05;100329.63;;;10.45;49.91
19594;BME280;9944;48.240;16.478;2024-02-14T15:11:28;100332.22;;;10.40;49.93
19594;BME280;9944;48.240;16.478;2024-02-14T15:15:52;100339.25;;;10.37;49.98
19594;BME280;9944;48.240;16.478;2024-02-14T15:20:16;100330.44;;;10.33;50.26
19594;BME280;9944;48.240;16.478;2024-02-14T15:24:40;100326.91;;;10.31;50.26
19594;BME280;9944;48.240;16.478;2024-02-14T15:29:04;100324.28;;;10.33;50.61
19594;BME280;9944;48.240;16.478;2024-02-14T15:33:41;100325.19;;;10.36;50.60
19594;BME280;9944;48.240;16.478;2024-02-14T15:38:06;100326.94;;;10.37;50.58
19594;BME280;9944;48.240;16.478;2024-02-14T15:42:30;100317.28;;;10.38;50.20
19594;BME280;9944;48.240;16.478;2024-02-14T15:46:53;100326.94;;;10.40;50.68
19594;BME280;9944;48.240;16.478;2024-02-14T15:51:16;100327.81;;;10.36;50.26
19594;BME280;9944;48.240;16.478;2024-02-14T15:55:40;100328.66;;;10.32;50.30
19594;BME280;9944;48.240;16.478;2024-02-14T16:00:07;100333.97;;;10.35;50.85
19594;BME280;9944;48.240;16.478;2024-02-14T16:04:32;100339.25;;;10.38;50.78
19594;BME280;9944;48.240;16.478;2024-02-14T16:08:55;100332.22;;;10.34;50.63
19594;BME280;9944;48.240;16.478;2024-02-14T16:13:21;100328.66;;;10.32;50.31
19594;BME280;9944;48.240;16.478;2024-02-14T16:17:45;100331.28;;;10.32;50.51
19594;BME280;9944;48.240;16.478;2024-02-14T16:22:09;100333.97;;;10.35;50.42
19594;BME280;9944;48.240;16.478;2024-02-14T16:26:38;100331.34;;;10.40;50.53
19594;BME280;9944;48.240;16.478;2024-02-14T16:31:02;100340.16;;;10.43;50.54
19594;BME280;9944;48.240;16.478;2024-02-14T16:35:26;100344.59;;;10.48;50.73
19594;BME280;9944;48.240;16.478;2024-02-14T16:39:52;100348.97;;;10.44;50.23
19594;BME280;9944;48.240;16.478;2024-02-14T16:44:17;100355.09;;;10.38;50.52
19594;BME280;9944;48.240;16.478;2024-02-14T16:48:42;100355.94;;;10.36;50.64
19594;BME280;9944;48.240;16.478;2024-02-14T16:53:06;100355.06;;;10.35;50.57
19594;BME280;9944;48.240;16.478;2024-02-14T16:57:29;100351.53;;;10.30;50.39
19594;BME280;9944;48.240;16.478;2024-02-14T17:01:53;100346.22;;;10.27;50.33
19594;BME280;9944;48.240;16.478;2024-02-14T17:06:18;100351.50;;;10.24;50.52
19594;BME280;9944;48.240;16.478;2024-02-14T17:10:42;100355.00;;;10.23;50.79
19594;BME280;9944;48.240;16.478;2024-02-14T17:15:06;100356.75;;;10.21;51.07
19594;BME280;9944;48.240;16.478;2024-02-14T17:19:31;100353.25;;;10.25;51.31
19594;BME280;9944;48.240;16.478;2024-02-14T17:23:56;100350.56;;;10.22;51.26
19594;BME280;9944;48.240;16.478;2024-02-14T17:28:20;100355.00;;;10.23;51.36
19594;BME280;9944;48.240;16.478;2024-02-14T17:32:44;100359.41;;;10.22;51.17
19594;BME280;9944;48.240;16.478;2024-02-14T17:37:10;100360.25;;;10.21;51.31
19594;BME280;9944;48.240;16.478;2024-02-14T17:41:35;100358.50;;;10.22;51.17
19594;BME280;9944;48.240;16.478;2024-02-14T17:45:59;100361.16;;;10.20;51.00
19594;BME280;9944;48.240;16.478;2024-02-14T17:50:22;100357.66;;;10.26;51.44
19594;BME280;9944;48.240;16.478;2024-02-14T17:54:46;100360.31;;;10.29;51.90
19594;BME280;9944;48.240;16.478;2024-02-14T17:59:11;100359.47;;;10.35;51.66
19594;BME280;9944;48.240;16.478;2024-02-14T18:03:36;100350.69;;;10.37;51.95
19594;BME280;9944;48.240;16.478;2024-02-14T18:08:00;100363.03;;;10.40;51.52
19594;BME280;9944;48.240;16.478;2024-02-14T18:12:24;100365.69;;;10.43;51.84
19594;BME280;9944;48.240;16.478;2024-02-14T18:16:49;100381.50;;;10.44;52.05
19594;BME280;9944;48.240;16.478;2024-02-14T18:21:13;100370.06;;;10.41;51.81
19594;BME280;9944;48.240;16.478;2024-02-14T18:25:36;100383.25;;;10.42;51.95
19594;BME280;9944;48.240;16.478;2024-02-14T18:30:00;100371.81;;;10.39;51.87
19594;BME280;9944;48.240;16.478;2024-02-14T18:34:26;100381.50;;;10.38;52.13
19594;BME280;9944;48.240;16.478;2024-02-14T18:38:50;100383.22;;;10.35;52.20
19594;BME280;9944;48.240;16.478;2024-02-14T18:43:14;100388.50;;;10.33;52.16
19594;BME280;9944;48.240;16.478;2024-02-14T18:47:38;100385.00;;;10.34;52.33
19594;BME280;9944;48.240;16.478;2024-02-14T18:52:03;100396.41;;;10.35;52.56
19594;BME280;9944;48.240;16.478;2024-02-14T18:56:28;100391.16;;;10.36;52.67
19594;BME280;9944;48.240;16.478;2024-02-14T19:00:51;100392.03;;;10.35;52.53
19594;BME280;9944;48.240;16.478;2024-02-14T19:05:16;100391.13;;;10.33;52.58
19594;BME280;9944;48.240;16.478;2024-02-14T19:09:41;100395.53;;;10.31;52.94
19594;BME280;9944;48.240;16.478;2024-02-14T19:14:04;100395.53;;;10.31;52.74
19594;BME280;9944;48.240;16.478;2024-02-14T19:18:28;100384.06;;;10.31;52.52
19594;BME280;9944;48.240;16.478;2024-02-14T19:22:52;100390.22;;;10.28;52.33
19594;BME280;9944;48.240;16.478;2024-02-14T19:27:16;100380.50;;;10.27;52.58
19594;BME280;9944;48.240;16.478;2024-02-14T19:31:39;100385.78;;;10.27;52.84
19594;BME280;9944;48.240;16.478;2024-02-14T19:36:03;100388.44;;;10.27;52.98
19594;BME280;9944;48.240;16.478;2024-02-14T19:40:30;100392.00;;;10.29;52.82
19594;BME280;9944;48.240;16.478;2024-02-14T19:44:56;100384.94;;;10.30;53.01
19594;BME280;9944;48.240;16.478;2024-02-14T19:49:20;100383.19;;;10.30;53.04
19594;BME280;9944;48.240;16.478;2024-02-14T19:53:45;100390.22;;;10.28;53.41
19594;BME280;9944;48.240;16.478;2024-02-14T19:58:08;100384.94;;;10.30;53.39
19594;BME280;9944;48.240;16.478;2024-02-14T20:02:33;100383.19;;;10.32;53.59
19594;BME280;9944;48.240;16.478;2024-02-14T20:06:58;100375.28;;;10.32;53.92
19594;BME280;9944;48.240;16.478;2024-02-14T20:11:23;100388.53;;;10.36;53.96
19594;BME280;9944;48.240;16.478;2024-02-14T20:15:48;100386.78;;;10.38;54.05
19594;BME280;9944;48.240;16.478;2024-02-14T20:20:14;100377.09;;;10.39;54.09
19594;BME280;9944;48.240;16.478;2024-02-14T20:24:38;100376.25;;;10.41;54.27
19594;BME280;9944;48.240;16.478;2024-02-14T20:29:04;100376.22;;;10.44;54.41
19594;BME280;9944;48.240;16.478;2024-02-14T20:33:28;100378.00;;;10.46;54.50
19594;BME280;9944;48.240;16.478;2024-02-14T20:37:54;100371.84;;;10.45;54.32
19594;BME280;9944;48.240;16.478;2024-02-14T20:42:18;100380.59;;;10.41;54.74
19594;BME280;9944;48.240;16.478;2024-02-14T20:46:42;100385.91;;;10.38;55.40
19594;BME280;9944;48.240;16.478;2024-02-14T20:51:10;100381.47;;;10.35;55.94
19594;BME280;9944;48.240;16.478;2024-02-14T20:55:35;100388.47;;;10.30;56.28
19594;BME280;9944;48.240;16.478;2024-02-14T20:59:59;100383.19;;;10.26;55.91
19594;BME280;9944;48.240;16.478;2024-02-14T21:04:22;100382.25;;;10.19;56.21
19594;BME280;9944;48.240;16.478;2024-02-14T21:08:47;100380.44;;;10.16;56.53
19594;BME280;9944;48.240;16.478;2024-02-14T21:13:12;100376.06;;;10.14;56.48
19594;BME280;9944;48.240;16.478;2024-02-14T21:17:35;100368.97;;;10.10;56.62
19594;BME280;9944;48.240;16.478;2024-02-14T21:21:58;100374.25;;;10.07;56.65
19594;BME280;9944;48.240;16.478;2024-02-14T21:26:23;100368.06;;;10.06;56.52
19594;BME280;9944;48.240;16.478;2024-02-14T21:30:48;100381.22;;;10.01;56.38
19594;BME280;9944;48.240;16.478;2024-02-14T21:35:11;100377.69;;;9.96;56.91
19594;BME280;9944;48.240;16.478;2024-02-14T21:39:34;100375.91;;;9.95;56.77
19594;BME280;9944;48.240;16.478;2024-02-14T21:43:58;100377.66;;;9.93;57.18
19594;BME280;9944;48.240;16.478;2024-02-14T21:48:23;100374.91;;;9.88;57.23
19594;BME280;9944;48.240;16.478;2024-02-14T21:52:47;100371.38;;;9.85;57.22
19594;BME280;9944;48.240;16.478;2024-02-14T21:57:10;100373.16;;;9.86;57.63
19594;BME280;9944;48.240;16.478;2024-02-14T22:01:34;100378.44;;;9.86;57.92
19594;BME280;9944;48.240;16.478;2024-02-14T22:05:59;100374.91;;;9.87;57.95
19594;BME280;9944;48.240;16.478;2024-02-14T22:10:23;100380.97;;;9.77;57.93
19594;BME280;9944;48.240;16.478;2024-02-14T22:14:48;100384.41;;;9.69;58.47
19594;BME280;9944;48.240;16.478;2024-02-14T22:19:12;100384.38;;;9.66;58.38
19594;BME280;9944;48.240;16.478;2024-02-14T22:23:36;100379.09;;;9.63;59.10
19594;BME280;9944;48.240;16.478;2024-02-14T22:28:01;100380.81;;;9.57;58.84
19594;BME280;9944;48.240;16.478;2024-02-14T22:32:25;100383.38;;;9.52;58.94
19594;BME280;9944;48.240;16.478;2024-02-14T22:36:49;100387.72;;;9.47;58.69
19594;BME280;9944;48.240;16.478;2024-02-14T22:41:15;100375.38;;;9.43;59.52